sensor_id;sensor_type;location;lat;lon;timestamp;P1;durP1;ratioP1;P2;durP2;ratioP2
21624;SDS011;10974;51.034;3.744;2022-11-20T04:16:43;41.37;;;24.10;;
21624;SDS011;10974;51.034;3.744;2022-11-20T04:19:10;43.73;;;25.50;;
21624;SDS011;10974;51.034;3.744;2022-11-20T04:21:37;36.00;;;22.23;;
21624;SDS011;10974;51.034;3.744;2022-11-20T04:24:03;43.73;;;23.60;;
21624;SDS011;10974;51.034;3.744;2022-11-20T04:26:29;37.63;;;22.97;;
21624;SDS011;10974;51.034;3.744;2022-11-20T04:28:55;37.87;;;24.23;;
21624;SDS011;10974;51.034;3.744;2022-11-20T04:31:23;41.53;;;23.30;;
21624;SDS011;10974;51.034;3.744;2022-11-20T04:33:50;37.70;;;23.27;;
21624;SDS011;10974;51.034;3.744;2022-11-20T04:36:17;39.37;;;24.87;;
21624;SDS011;10974;51.034;3.744;2022-11-20T04:38:44;40.20;;;26.10;;
21624;SDS011;10974;51.034;3.744;2022-11-20T04:41:18;41.00;;;24.93;;
21624;SDS011;10974;51.034;3.744;2022-11-20T04:43:46;42.20;;;24.50;;
21624;SDS011;10974;51.034;3.744;2022-11-20T04:46:15;41.17;;;23.70;;
21624;SDS011;10974;51.034;3.744;2022-11-20T04:48:45;35.20;;;22.30;;
21624;SDS011;10974;51.034;3.744;2022-11-20T04:51:11;37.63;;;23.53;;
21624;SDS011;10974;51.034;3.744;2022-11-20T04:53:37;39.30;;;24.03;;
21624;SDS011;10974;51.034;3.744;2022-11-20T04:56:04;38.90;;;24.63;;
21624;SDS011;10974;51.034;3.744;2022-11-20T04:58:32;37.13;;;23.03;;
21624;SDS011;10974;51.034;3.744;2022-11-20T05:01:02;42.13;;;23.57;;
21624;SDS011;10974;51.034;3.744;2022-11-20T05:03:29;39.30;;;24.50;;
21624;SDS011;10974;51.034;3.744;2022-11-20T05:05:55;38.60;;;22.73;;
21624;SDS011;10974;51.034;3.744;2022-11-20T05:08:21;42.73;;;24.60;;
21624;SDS011;10974;51.034;3.744;2022-11-20T05:10:46;42.07;;;24.17;;
21624;SDS011;10974;51.034;3.744;2022-11-20T05:13:12;40.97;;;25.40;;
21624;SDS011;10974;51.034;3.744;2022-11-20T05:15:38;42.57;;;26.70;;
21624;SDS011;10974;51.034;3.744;2022-11-20T05:18:03;42.67;;;25.73;;
21624;SDS011;10974;51.034;3.744;2022-11-20T05:20:29;47.37;;;26.37;;
21624;SDS011;10974;51.034;3.744;2022-11-20T05:22:57;45.90;;;27.23;;
21624;SDS011;10974;51.034;3.744;2022-11-20T05:25:23;43.00;;;25.00;;
21624;SDS011;10974;51.034;3.744;2022-11-20T05:27:49;43.33;;;25.10;;
21624;SDS011;10974;51.034;3.744;2022-11-20T05:30:14;49.77;;;26.60;;
21624;SDS011;10974;51.034;3.744;2022-11-20T05:32:40;48.83;;;27.77;;
21624;SDS011;10974;51.034;3.744;2022-11-20T05:35:06;43.80;;;26.17;;
21624;SDS011;10974;51.034;3.744;2022-11-20T05:37:32;46.33;;;25.60;;
21624;SDS011;10974;51.034;3.744;2022-11-20T05:39:57;41.27;;;24.77;;
21624;SDS011;10974;51.034;3.744;2022-11-20T05:42:23;46.80;;;27.30;;
21624;SDS011;10974;51.034;3.744;2022-11-20T05:44:55;46.80;;;27.43;;
21624;SDS011;10974;51.034;3.744;2022-11-20T05:47:25;49.37;;;28.47;;
21624;SDS011;10974;51.034;3.744;2022-11-20T05:49:51;53.53;;;27.83;;
21624;SDS011;10974;51.034;3.744;2022-11-20T05:52:17;53.13;;;28.80;;
21624;SDS011;10974;51.034;3.744;2022-11-20T05:54:42;55.03;;;28.20;;
21624;SDS011;10974;51.034;3.744;2022-11-20T05:57:08;51.37;;;28.40;;
21624;SDS011;10974;51.034;3.744;2022-11-20T05:59:33;57.60;;;29.53;;
21624;SDS011;10974;51.034;3.744;2022-11-20T06:01:59;55.23;;;30.53;;
21624;SDS011;10974;51.034;3.744;2022-11-20T06:04:25;54.43;;;29.17;;
21624;SDS011;10974;51.034;3.744;2022-11-20T06:06:50;54.63;;;30.47;;
21624;SDS011;10974;51.034;3.744;2022-11-20T06:09:16;53.50;;;30.63;;
21624;SDS011;10974;51.034;3.744;2022-11-20T06:11:41;52.63;;;30.03;;
21624;SDS011;10974;51.034;3.744;2022-11-20T06:14:07;51.87;;;27.30;;
21624;SDS011;10974;51.034;3.744;2022-11-20T06:16:32;57.33;;;29.03;;
21624;SDS011;10974;51.034;3.744;2022-11-20T06:18:58;53.90;;;29.50;;
21624;SDS011;10974;51.034;3.744;2022-11-20T06:21:24;51.03;;;28.03;;
21624;SDS011;10974;51.034;3.744;2022-11-20T06:23:50;47.93;;;27.50;;
21624;SDS011;10974;51.034;3.744;2022-11-20T06:26:20;52.10;;;27.57;;
21624;SDS011;10974;51.034;3.744;2022-11-20T06:28:48;55.63;;;29.70;;
21624;SDS011;10974;51.034;3.744;2022-11-20T06:31:14;57.20;;;28.40;;
21624;SDS011;10974;51.034;3.744;2022-11-20T06:33:41;47.27;;;26.37;;
21624;SDS011;10974;51.034;3.744;2022-11-20T06:36:08;45.50;;;26.27;;
21624;SDS011;10974;51.034;3.744;2022-11-20T06:38:35;47.30;;;26.87;;
21624;SDS011;10974;51.034;3.744;2022-11-20T06:41:02;44.53;;;26.40;;
21624;SDS011;10974;51.034;3.744;2022-11-20T06:43:29;49.23;;;26.50;;
21624;SDS011;10974;51.034;3.744;2022-11-20T06:45:55;47.53;;;27.03;;
21624;SDS011;10974;51.034;3.744;2022-11-20T06:48:22;46.43;;;26.67;;
21624;SDS011;10974;51.034;3.744;2022-11-20T06:50:48;46.20;;;25.60;;
21624;SDS011;10974;51.034;3.744;2022-11-20T06:53:14;45.47;;;26.03;;
21624;SDS011;10974;51.034;3.744;2022-11-20T06:55:43;41.37;;;24.20;;
21624;SDS011;10974;51.034;3.744;2022-11-20T06:58:11;44.00;;;26.03;;
21624;SDS011;10974;51.034;3.744;2022-11-20T07:00:37;42.00;;;24.60;;
21624;SDS011;10974;51.034;3.744;2022-11-20T07:03:06;43.23;;;26.20;;
21624;SDS011;10974;51.034;3.744;2022-11-20T07:05:34;41.17;;;24.63;;
21624;SDS011;10974;51.034;3.744;2022-11-20T07:08:00;42.80;;;25.27;;
21624;SDS011;10974;51.034;3.744;2022-11-20T07:10:26;42.33;;;25.73;;
21624;SDS011;10974;51.034;3.744;2022-11-20T07:12:52;42.50;;;24.97;;
21624;SDS011;10974;51.034;3.744;2022-11-20T07:15:19;44.23;;;25.37;;
21624;SDS011;10974;51.034;3.744;2022-11-20T07:17:46;45.30;;;26.40;;
21624;SDS011;10974;51.034;3.744;2022-11-20T07:20:12;41.57;;;26.23;;
21624;SDS011;10974;51.034;3.744;2022-11-20T07:22:38;43.97;;;25.73;;
21624;SDS011;10974;51.034;3.744;2022-11-20T07:25:04;43.43;;;26.20;;
21624;SDS011;10974;51.034;3.744;2022-11-20T07:27:30;46.47;;;25.10;;
21624;SDS011;10974;51.034;3.744;2022-11-20T07:29:56;44.93;;;24.93;;
21624;SDS011;10974;51.034;3.744;2022-11-20T07:32:22;40.00;;;24.50;;
21624;SDS011;10974;51.034;3.744;2022-11-20T07:34:48;44.10;;;24.73;;
21624;SDS011;10974;51.034;3.744;2022-11-20T07:37:14;46.17;;;25.23;;
21624;SDS011;10974;51.034;3.744;2022-11-20T07:39:40;41.50;;;25.10;;
21624;SDS011;10974;51.034;3.744;2022-11-20T07:42:06;40.53;;;23.50;;
21624;SDS011;10974;51.034;3.744;2022-11-20T07:44:33;44.90;;;25.67;;
21624;SDS011;10974;51.034;3.744;2022-11-20T07:46:59;40.77;;;24.17;;
21624;SDS011;10974;51.034;3.744;2022-11-20T07:49:24;44.77;;;24.40;;
21624;SDS011;10974;51.034;3.744;2022-11-20T07:51:50;42.57;;;25.83;;
21624;SDS011;10974;51.034;3.744;2022-11-20T07:54:18;42.50;;;23.97;;
21624;SDS011;10974;51.034;3.744;2022-11-20T07:56:44;41.67;;;22.90;;
21624;SDS011;10974;51.034;3.744;2022-11-20T07:59:10;44.80;;;24.50;;
21624;SDS011;10974;51.034;3.744;2022-11-20T08:01:37;47.00;;;25.73;;
21624;SDS011;10974;51.034;3.744;2022-11-20T08:04:03;37.50;;;23.20;;
21624;SDS011;10974;51.034;3.744;2022-11-20T08:06:29;43.23;;;24.33;;
21624;SDS011;10974;51.034;3.744;2022-11-20T08:08:55;43.30;;;25.37;;
21624;SDS011;10974;51.034;3.744;2022-11-20T08:11:21;44.53;;;23.20;;
21624;SDS011;10974;51.034;3.744;2022-11-20T08:14:05;46.70;;;26.23;;
21624;SDS011;10974;51.034;3.744;2022-11-20T08:16:36;42.03;;;24.47;;
21624;SDS011;10974;51.034;3.744;2022-11-20T08:19:10;48.73;;;24.73;;
21624;SDS011;10974;51.034;3.744;2022-11-20T08:21:36;47.60;;;24.23;;
21624;SDS011;10974;51.034;3.744;2022-11-20T08:24:02;43.43;;;23.03;;
21624;SDS011;10974;51.034;3.744;2022-11-20T08:26:27;45.87;;;23.80;;
21624;SDS011;10974;51.034;3.744;2022-11-20T08:28:57;48.00;;;25.37;;
21624;SDS011;10974;51.034;3.744;2022-11-20T08:31:24;48.43;;;24.40;;
21624;SDS011;10974;51.034;3.744;2022-11-20T08:33:51;43.53;;;24.30;;
21624;SDS011;10974;51.034;3.744;2022-11-20T08:36:17;42.20;;;23.30;;
21624;SDS011;10974;51.034;3.744;2022-11-20T08:38:47;45.20;;;24.13;;
21624;SDS011;10974;51.034;3.744;2022-11-20T08:41:13;49.73;;;24.90;;
21624;SDS011;10974;51.034;3.744;2022-11-20T08:43:48;41.97;;;22.87;;
21624;SDS011;10974;51.034;3.744;2022-11-20T08:46:15;38.67;;;23.00;;
21624;SDS011;10974;51.034;3.744;2022-11-20T08:48:41;41.50;;;22.40;;
21624;SDS011;10974;51.034;3.744;2022-11-20T08:51:08;39.73;;;23.20;;
21624;SDS011;10974;51.034;3.744;2022-11-20T08:53:34;38.20;;;22.40;;
21624;SDS011;10974;51.034;3.744;2022-11-20T08:55:59;43.00;;;23.67;;
21624;SDS011;10974;51.034;3.744;2022-11-20T08:58:25;37.97;;;21.50;;
21624;SDS011;10974;51.034;3.744;2022-11-20T09:00:51;34.37;;;20.07;;
21624;SDS011;10974;51.034;3.744;2022-11-20T09:03:17;42.93;;;21.10;;
21624;SDS011;10974;51.034;3.744;2022-11-20T09:05:43;35.63;;;21.67;;
21624;SDS011;10974;51.034;3.744;2022-11-20T09:08:08;31.60;;;19.03;;
21624;SDS011;10974;51.034;3.744;2022-11-20T09:10:34;34.00;;;20.50;;
21624;SDS011;10974;51.034;3.744;2022-11-20T09:13:00;37.57;;;21.30;;
21624;SDS011;10974;51.034;3.744;2022-11-20T09:15:26;30.40;;;18.20;;
21624;SDS011;10974;51.034;3.744;2022-11-20T09:17:52;31.83;;;19.33;;
21624;SDS011;10974;51.034;3.744;2022-11-20T09:20:19;29.30;;;18.60;;
21624;SDS011;10974;51.034;3.744;2022-11-20T09:22:45;33.03;;;19.00;;
21624;SDS011;10974;51.034;3.744;2022-11-20T09:25:11;31.50;;;18.00;;
21624;SDS011;10974;51.034;3.744;2022-11-20T09:27:37;26.40;;;16.80;;
21624;SDS011;10974;51.034;3.744;2022-11-20T09:30:03;28.80;;;17.03;;
21624;SDS011;10974;51.034;3.744;2022-11-20T09:32:29;28.97;;;17.27;;
21624;SDS011;10974;51.034;3.744;2022-11-20T09:34:55;27.00;;;17.10;;
21624;SDS011;10974;51.034;3.744;2022-11-20T09:37:20;24.17;;;15.37;;
21624;SDS011;10974;51.034;3.744;2022-11-20T09:39:46;28.70;;;17.10;;
21624;SDS011;10974;51.034;3.744;2022-11-20T09:44:47;26.60;;;15.40;;
21624;SDS011;10974;51.034;3.744;2022-11-20T09:50:35;23.90;;;14.00;;
21624;SDS011;10974;51.034;3.744;2022-11-20T09:53:27;21.87;;;14.07;;
21624;SDS011;10974;51.034;3.744;2022-11-20T09:56:00;19.47;;;14.13;;
21624;SDS011;10974;51.034;3.744;2022-11-20T10:01:23;26.37;;;15.13;;
21624;SDS011;10974;51.034;3.744;2022-11-20T10:09:43;22.57;;;12.20;;
21624;SDS011;10974;51.034;3.744;2022-11-20T10:17:20;23.67;;;13.20;;
21624;SDS011;10974;51.034;3.744;2022-11-20T10:25:20;16.77;;;11.03;;
21624;SDS011;10974;51.034;3.744;2022-11-20T10:30:54;15.90;;;9.50;;
21624;SDS011;10974;51.034;3.744;2022-11-20T10:33:26;15.13;;;9.67;;
21624;SDS011;10974;51.034;3.744;2022-11-20T10:36:30;12.87;;;7.87;;
21624;SDS011;10974;51.034;3.744;2022-11-20T10:38:59;12.10;;;7.60;;
21624;SDS011;10974;51.034;3.744;2022-11-20T10:41:37;13.30;;;6.50;;
21624;SDS011;10974;51.034;3.744;2022-11-20T10:44:10;10.07;;;6.73;;
21624;SDS011;10974;51.034;3.744;2022-11-20T10:47:00;9.13;;;5.50;;
21624;SDS011;10974;51.034;3.744;2022-11-20T10:49:26;11.40;;;5.37;;
21624;SDS011;10974;51.034;3.744;2022-11-20T11:00:09;7.50;;;4.47;;
21624;SDS011;10974;51.034;3.744;2022-11-20T11:07:58;10.13;;;5.10;;
21624;SDS011;10974;51.034;3.744;2022-11-20T11:10:32;7.97;;;5.10;;
21624;SDS011;10974;51.034;3.744;2022-11-20T11:13:18;8.17;;;4.80;;
21624;SDS011;10974;51.034;3.744;2022-11-20T11:15:51;7.90;;;3.90;;
21624;SDS011;10974;51.034;3.744;2022-11-20T11:20:52;6.47;;;4.10;;
21624;SDS011;10974;51.034;3.744;2022-11-20T11:23:28;9.40;;;4.13;;
21624;SDS011;10974;51.034;3.744;2022-11-20T11:25:58;6.37;;;3.90;;
21624;SDS011;10974;51.034;3.744;2022-11-20T11:28:25;9.23;;;3.63;;
21624;SDS011;10974;51.034;3.744;2022-11-20T11:30:53;7.07;;;3.67;;
21624;SDS011;10974;51.034;3.744;2022-11-20T11:33:26;9.43;;;3.23;;
21624;SDS011;10974;51.034;3.744;2022-11-20T11:35:54;7.43;;;3.37;;
21624;SDS011;10974;51.034;3.744;2022-11-20T11:41:03;9.50;;;3.37;;
21624;SDS011;10974;51.034;3.744;2022-11-20T11:43:32;10.23;;;3.60;;
21624;SDS011;10974;51.034;3.744;2022-11-20T11:46:27;6.27;;;3.63;;
21624;SDS011;10974;51.034;3.744;2022-11-20T11:52:20;16.30;;;3.63;;
21624;SDS011;10974;51.034;3.744;2022-11-20T11:57:50;7.77;;;3.40;;
21624;SDS011;10974;51.034;3.744;2022-11-20T12:00:08;11.77;;;4.00;;
21624;SDS011;10974;51.034;3.744;2022-11-20T12:10:39;8.53;;;3.60;;
21624;SDS011;10974;51.034;3.744;2022-11-20T12:13:14;6.40;;;3.10;;
21624;SDS011;10974;51.034;3.744;2022-11-20T12:15:46;8.43;;;3.43;;
21624;SDS011;10974;51.034;3.744;2022-11-20T12:18:17;11.67;;;3.77;;
21624;SDS011;10974;51.034;3.744;2022-11-20T12:20:50;7.03;;;3.77;;
21624;SDS011;10974;51.034;3.744;2022-11-20T12:26:01;16.73;;;3.27;;
21624;SDS011;10974;51.034;3.744;2022-11-20T12:34:40;5.90;;;2.77;;
21624;SDS011;10974;51.034;3.744;2022-11-20T12:37:18;8.03;;;3.20;;
21624;SDS011;10974;51.034;3.744;2022-11-20T12:39:55;12.80;;;3.60;;
21624;SDS011;10974;51.034;3.744;2022-11-20T12:48:35;8.23;;;3.10;;
21624;SDS011;10974;51.034;3.744;2022-11-20T13:00:01;8.07;;;3.13;;
21624;SDS011;10974;51.034;3.744;2022-11-20T13:03:00;2.90;;;2.30;;
21624;SDS011;10974;51.034;3.744;2022-11-20T13:08:25;3.53;;;1.90;;
21624;SDS011;10974;51.034;3.744;2022-11-20T13:11:16;6.20;;;2.77;;
21624;SDS011;10974;51.034;3.744;2022-11-20T13:19:29;5.93;;;1.97;;
21624;SDS011;10974;51.034;3.744;2022-11-20T13:21:55;1.97;;;1.80;;
21624;SDS011;10974;51.034;3.744;2022-11-20T13:26:59;2.60;;;1.63;;
21624;SDS011;10974;51.034;3.744;2022-11-20T13:29:28;2.97;;;1.93;;
21624;SDS011;10974;51.034;3.744;2022-11-20T13:32:13;2.23;;;1.73;;
21624;SDS011;10974;51.034;3.744;2022-11-20T13:34:51;4.83;;;2.10;;
21624;SDS011;10974;51.034;3.744;2022-11-20T13:37:32;2.73;;;1.70;;
21624;SDS011;10974;51.034;3.744;2022-11-20T13:40:05;2.00;;;1.90;;
21624;SDS011;10974;51.034;3.744;2022-11-20T13:42:31;10.17;;;2.00;;
21624;SDS011;10974;51.034;3.744;2022-11-20T13:45:21;3.17;;;2.30;;
21624;SDS011;10974;51.034;3.744;2022-11-20T13:47:51;2.27;;;1.97;;
21624;SDS011;10974;51.034;3.744;2022-11-20T13:50:18;3.40;;;2.10;;
21624;SDS011;10974;51.034;3.744;2022-11-20T13:56:30;5.77;;;2.40;;
21624;SDS011;10974;51.034;3.744;2022-11-20T14:01:23;3.23;;;2.47;;
21624;SDS011;10974;51.034;3.744;2022-11-20T14:03:51;2.83;;;2.13;;
21624;SDS011;10974;51.034;3.744;2022-11-20T14:08:52;3.03;;;2.07;;
21624;SDS011;10974;51.034;3.744;2022-11-20T14:11:19;2.67;;;1.90;;
21624;SDS011;10974;51.034;3.744;2022-11-20T14:16:25;1.93;;;1.80;;
21624;SDS011;10974;51.034;3.744;2022-11-20T14:18:54;3.57;;;1.80;;
21624;SDS011;10974;51.034;3.744;2022-11-20T14:21:28;2.60;;;2.00;;
21624;SDS011;10974;51.034;3.744;2022-11-20T14:24:04;2.70;;;1.80;;
21624;SDS011;10974;51.034;3.744;2022-11-20T14:26:31;3.00;;;1.97;;
21624;SDS011;10974;51.034;3.744;2022-11-20T14:28:58;2.37;;;2.00;;
21624;SDS011;10974;51.034;3.744;2022-11-20T14:31:24;2.93;;;2.03;;
21624;SDS011;10974;51.034;3.744;2022-11-20T14:33:54;2.47;;;2.03;;
21624;SDS011;10974;51.034;3.744;2022-11-20T14:36:22;4.03;;;2.17;;
21624;SDS011;10974;51.034;3.744;2022-11-20T14:38:50;3.50;;;2.60;;
21624;SDS011;10974;51.034;3.744;2022-11-20T14:41:19;7.20;;;3.87;;
21624;SDS011;10974;51.034;3.744;2022-11-20T14:43:47;4.35;;;2.83;;
21624;SDS011;10974;51.034;3.744;2022-11-20T14:46:24;6.33;;;2.03;;
21624;SDS011;10974;51.034;3.744;2022-11-20T14:49:00;5.73;;;2.27;;
21624;SDS011;10974;51.034;3.744;2022-11-20T14:51:30;3.53;;;2.30;;
21624;SDS011;10974;51.034;3.744;2022-11-20T14:56:57;7.80;;;2.67;;
21624;SDS011;10974;51.034;3.744;2022-11-20T14:59:25;6.50;;;2.53;;
21624;SDS011;10974;51.034;3.744;2022-11-20T15:01:56;5.80;;;2.50;;
21624;SDS011;10974;51.034;3.744;2022-11-20T15:04:27;12.57;;;2.60;;
21624;SDS011;10974;51.034;3.744;2022-11-20T15:06:56;4.17;;;2.20;;
21624;SDS011;10974;51.034;3.744;2022-11-20T15:09:23;9.27;;;2.87;;
21624;SDS011;10974;51.034;3.744;2022-11-20T15:11:53;9.20;;;2.60;;
21624;SDS011;10974;51.034;3.744;2022-11-20T15:14:24;15.53;;;3.33;;
21624;SDS011;10974;51.034;3.744;2022-11-20T15:16:51;11.20;;;3.40;;
21624;SDS011;10974;51.034;3.744;2022-11-20T15:19:21;9.00;;;2.50;;
21624;SDS011;10974;51.034;3.744;2022-11-20T15:21:48;11.17;;;3.07;;
21624;SDS011;10974;51.034;3.744;2022-11-20T15:24:15;9.00;;;2.80;;
21624;SDS011;10974;51.034;3.744;2022-11-20T15:26:41;7.50;;;2.80;;
21624;SDS011;10974;51.034;3.744;2022-11-20T15:29:10;9.63;;;2.73;;
21624;SDS011;10974;51.034;3.744;2022-11-20T15:31:38;9.33;;;2.87;;
21624;SDS011;10974;51.034;3.744;2022-11-20T15:34:10;10.47;;;3.00;;
21624;SDS011;10974;51.034;3.744;2022-11-20T15:36:38;7.87;;;3.60;;
21624;SDS011;10974;51.034;3.744;2022-11-20T15:39:04;11.43;;;3.27;;
21624;SDS011;10974;51.034;3.744;2022-11-20T15:41:33;12.00;;;4.47;;
21624;SDS011;10974;51.034;3.744;2022-11-20T15:43:59;10.73;;;3.40;;
21624;SDS011;10974;51.034;3.744;2022-11-20T15:46:26;11.57;;;3.63;;
21624;SDS011;10974;51.034;3.744;2022-11-20T15:48:54;7.50;;;3.40;;
21624;SDS011;10974;51.034;3.744;2022-11-20T15:52:03;9.60;;;3.37;;
21624;SDS011;10974;51.034;3.744;2022-11-20T15:54:16;11.57;;;3.30;;
21624;SDS011;10974;51.034;3.744;2022-11-20T15:56:45;12.90;;;4.27;;
21624;SDS011;10974;51.034;3.744;2022-11-20T15:59:14;10.50;;;3.57;;
21624;SDS011;10974;51.034;3.744;2022-11-20T16:01:40;12.53;;;4.07;;
21624;SDS011;10974;51.034;3.744;2022-11-20T16:04:13;12.13;;;3.10;;
21624;SDS011;10974;51.034;3.744;2022-11-20T16:06:40;14.67;;;3.93;;
21624;SDS011;10974;51.034;3.744;2022-11-20T16:09:06;11.43;;;3.53;;
21624;SDS011;10974;51.034;3.744;2022-11-20T16:11:32;10.60;;;3.30;;
21624;SDS011;10974;51.034;3.744;2022-11-20T16:14:00;8.83;;;3.17;;
21624;SDS011;10974;51.034;3.744;2022-11-20T16:16:44;9.80;;;3.50;;
21624;SDS011;10974;51.034;3.744;2022-11-20T16:19:10;8.80;;;2.83;;
21624;SDS011;10974;51.034;3.744;2022-11-20T16:21:37;9.77;;;2.90;;
21624;SDS011;10974;51.034;3.744;2022-11-20T16:24:05;23.73;;;9.13;;
21624;SDS011;10974;51.034;3.744;2022-11-20T16:26:31;27.10;;;12.10;;
21624;SDS011;10974;51.034;3.744;2022-11-20T16:28:58;23.63;;;10.40;;
21624;SDS011;10974;51.034;3.744;2022-11-20T16:31:25;19.07;;;7.97;;
21624;SDS011;10974;51.034;3.744;2022-11-20T16:33:51;20.60;;;6.10;;
21624;SDS011;10974;51.034;3.744;2022-11-20T16:36:18;11.93;;;3.50;;
21624;SDS011;10974;51.034;3.744;2022-11-20T16:38:45;13.97;;;5.53;;
21624;SDS011;10974;51.034;3.744;2022-11-20T16:41:11;12.97;;;4.90;;
21624;SDS011;10974;51.034;3.744;2022-11-20T16:43:50;9.00;;;4.43;;
21624;SDS011;10974;51.034;3.744;2022-11-20T16:46:21;15.40;;;4.80;;
21624;SDS011;10974;51.034;3.744;2022-11-20T16:48:54;12.40;;;4.53;;
21624;SDS011;10974;51.034;3.744;2022-11-20T16:51:22;15.70;;;4.50;;
21624;SDS011;10974;51.034;3.744;2022-11-20T16:53:49;12.20;;;3.67;;
21624;SDS011;10974;51.034;3.744;2022-11-20T16:56:16;16.00;;;4.00;;
21624;SDS011;10974;51.034;3.744;2022-11-20T16:58:43;12.53;;;4.77;;
21624;SDS011;10974;51.034;3.744;2022-11-20T17:01:10;11.97;;;3.73;;
21624;SDS011;10974;51.034;3.744;2022-11-20T17:03:38;15.47;;;4.70;;
21624;SDS011;10974;51.034;3.744;2022-11-20T17:06:14;12.48;;;4.38;;
21624;SDS011;10974;51.034;3.744;2022-11-20T17:08:45;19.23;;;4.77;;
21624;SDS011;10974;51.034;3.744;2022-11-20T17:11:12;11.53;;;3.90;;
21624;SDS011;10974;51.034;3.744;2022-11-20T17:13:43;13.63;;;4.43;;
21624;SDS011;10974;51.034;3.744;2022-11-20T17:16:10;17.83;;;6.13;;
21624;SDS011;10974;51.034;3.744;2022-11-20T17:18:43;13.70;;;4.07;;
21624;SDS011;10974;51.034;3.744;2022-11-20T17:21:09;11.60;;;3.70;;
21624;SDS011;10974;51.034;3.744;2022-11-20T17:23:37;12.37;;;4.47;;
21624;SDS011;10974;51.034;3.744;2022-11-20T17:26:14;14.37;;;3.70;;
21624;SDS011;10974;51.034;3.744;2022-11-20T17:28:42;12.07;;;4.20;;
21624;SDS011;10974;51.034;3.744;2022-11-20T17:31:13;11.00;;;4.30;;
21624;SDS011;10974;51.034;3.744;2022-11-20T17:33:41;12.43;;;4.50;;
21624;SDS011;10974;51.034;3.744;2022-11-20T17:36:09;13.10;;;5.00;;
21624;SDS011;10974;51.034;3.744;2022-11-20T17:38:36;12.80;;;4.73;;
21624;SDS011;10974;51.034;3.744;2022-11-20T17:41:04;15.43;;;4.90;;
21624;SDS011;10974;51.034;3.744;2022-11-20T17:43:35;17.47;;;5.13;;
21624;SDS011;10974;51.034;3.744;2022-11-20T17:46:04;13.00;;;4.60;;
21624;SDS011;10974;51.034;3.744;2022-11-20T17:48:31;13.60;;;4.97;;
21624;SDS011;10974;51.034;3.744;2022-11-20T17:51:01;15.80;;;5.20;;
21624;SDS011;10974;51.034;3.744;2022-11-20T17:53:28;19.13;;;5.17;;
21624;SDS011;10974;51.034;3.744;2022-11-20T17:55:57;12.40;;;4.70;;
21624;SDS011;10974;51.034;3.744;2022-11-20T17:58:42;13.50;;;4.50;;
21624;SDS011;10974;51.034;3.744;2022-11-20T18:01:08;17.33;;;5.77;;
21624;SDS011;10974;51.034;3.744;2022-11-20T18:03:34;15.50;;;4.77;;
21624;SDS011;10974;51.034;3.744;2022-11-20T18:06:13;15.90;;;4.60;;
21624;SDS011;10974;51.034;3.744;2022-11-20T18:08:41;15.13;;;5.00;;
21624;SDS011;10974;51.034;3.744;2022-11-20T18:13:39;13.77;;;4.63;;
21624;SDS011;10974;51.034;3.744;2022-11-20T18:16:24;14.73;;;5.30;;
21624;SDS011;10974;51.034;3.744;2022-11-20T18:18:53;16.80;;;4.23;;
21624;SDS011;10974;51.034;3.744;2022-11-20T18:21:21;17.73;;;5.00;;
21624;SDS011;10974;51.034;3.744;2022-11-20T18:23:47;12.90;;;4.77;;
21624;SDS011;10974;51.034;3.744;2022-11-20T18:26:14;12.60;;;4.60;;
21624;SDS011;10974;51.034;3.744;2022-11-20T18:28:39;14.90;;;4.47;;
21624;SDS011;10974;51.034;3.744;2022-11-20T18:31:05;12.57;;;5.00;;
21624;SDS011;10974;51.034;3.744;2022-11-20T18:33:33;16.60;;;5.60;;
21624;SDS011;10974;51.034;3.744;2022-11-20T18:36:21;16.33;;;6.00;;
21624;SDS011;10974;51.034;3.744;2022-11-20T18:38:48;13.43;;;5.10;;
21624;SDS011;10974;51.034;3.744;2022-11-20T18:41:16;12.00;;;4.70;;
21624;SDS011;10974;51.034;3.744;2022-11-20T18:44:03;15.20;;;5.50;;
21624;SDS011;10974;51.034;3.744;2022-11-20T18:46:50;17.20;;;5.33;;
21624;SDS011;10974;51.034;3.744;2022-11-20T18:49:16;16.93;;;6.13;;
21624;SDS011;10974;51.034;3.744;2022-11-20T18:51:41;12.47;;;5.20;;
21624;SDS011;10974;51.034;3.744;2022-11-20T18:54:11;15.30;;;5.43;;
21624;SDS011;10974;51.034;3.744;2022-11-20T18:56:37;14.03;;;5.70;;
21624;SDS011;10974;51.034;3.744;2022-11-20T18:59:03;13.90;;;5.57;;
21624;SDS011;10974;51.034;3.744;2022-11-20T19:01:30;13.10;;;5.70;;
21624;SDS011;10974;51.034;3.744;2022-11-20T19:03:56;15.47;;;5.73;;
21624;SDS011;10974;51.034;3.744;2022-11-20T19:06:21;15.00;;;5.70;;
21624;SDS011;10974;51.034;3.744;2022-11-20T19:08:47;14.37;;;5.73;;
21624;SDS011;10974;51.034;3.744;2022-11-20T19:11:13;15.73;;;5.43;;
21624;SDS011;10974;51.034;3.744;2022-11-20T19:13:39;13.47;;;5.13;;
21624;SDS011;10974;51.034;3.744;2022-11-20T19:16:09;18.70;;;7.20;;
21624;SDS011;10974;51.034;3.744;2022-11-20T19:18:39;17.83;;;5.60;;
21624;SDS011;10974;51.034;3.744;2022-11-20T19:21:09;14.07;;;5.53;;
21624;SDS011;10974;51.034;3.744;2022-11-20T19:23:36;16.83;;;5.50;;
21624;SDS011;10974;51.034;3.744;2022-11-20T19:26:02;10.63;;;4.20;;
21624;SDS011;10974;51.034;3.744;2022-11-20T19:28:29;13.63;;;4.90;;
21624;SDS011;10974;51.034;3.744;2022-11-20T19:31:01;18.87;;;4.90;;
21624;SDS011;10974;51.034;3.744;2022-11-20T19:33:28;13.17;;;5.10;;
21624;SDS011;10974;51.034;3.744;2022-11-20T19:35:53;14.97;;;4.70;;
21624;SDS011;10974;51.034;3.744;2022-11-20T19:38:19;12.93;;;4.90;;
21624;SDS011;10974;51.034;3.744;2022-11-20T19:40:46;15.57;;;4.70;;
21624;SDS011;10974;51.034;3.744;2022-11-20T19:43:11;12.80;;;5.07;;
21624;SDS011;10974;51.034;3.744;2022-11-20T19:45:37;15.83;;;5.80;;
21624;SDS011;10974;51.034;3.744;2022-11-20T19:48:02;14.60;;;4.73;;
21624;SDS011;10974;51.034;3.744;2022-11-20T19:50:28;12.20;;;5.03;;
21624;SDS011;10974;51.034;3.744;2022-11-20T19:52:55;16.13;;;5.40;;
21624;SDS011;10974;51.034;3.744;2022-11-20T19:55:21;11.20;;;4.40;;
21624;SDS011;10974;51.034;3.744;2022-11-20T19:57:46;15.50;;;5.60;;
21624;SDS011;10974;51.034;3.744;2022-11-20T20:00:12;12.40;;;4.27;;
21624;SDS011;10974;51.034;3.744;2022-11-20T20:02:38;12.40;;;4.73;;
21624;SDS011;10974;51.034;3.744;2022-11-20T20:05:04;15.60;;;5.57;;
21624;SDS011;10974;51.034;3.744;2022-11-20T20:07:30;14.00;;;5.63;;
21624;SDS011;10974;51.034;3.744;2022-11-20T20:09:55;11.57;;;4.37;;
21624;SDS011;10974;51.034;3.744;2022-11-20T20:12:21;13.90;;;5.00;;
21624;SDS011;10974;51.034;3.744;2022-11-20T20:14:47;14.80;;;4.57;;
21624;SDS011;10974;51.034;3.744;2022-11-20T20:17:12;13.40;;;5.30;;
21624;SDS011;10974;51.034;3.744;2022-11-20T20:19:38;16.43;;;5.27;;
21624;SDS011;10974;51.034;3.744;2022-11-20T20:22:03;14.70;;;5.57;;
21624;SDS011;10974;51.034;3.744;2022-11-20T20:24:29;17.17;;;5.60;;
21624;SDS011;10974;51.034;3.744;2022-11-20T20:26:55;19.80;;;10.67;;
21624;SDS011;10974;51.034;3.744;2022-11-20T20:29:20;15.70;;;6.20;;
21624;SDS011;10974;51.034;3.744;2022-11-20T20:31:46;18.07;;;6.10;;
21624;SDS011;10974;51.034;3.744;2022-11-20T20:34:12;12.90;;;5.00;;
21624;SDS011;10974;51.034;3.744;2022-11-20T20:36:38;13.47;;;5.80;;
21624;SDS011;10974;51.034;3.744;2022-11-20T20:39:03;15.97;;;5.40;;
21624;SDS011;10974;51.034;3.744;2022-11-20T20:41:29;13.53;;;4.60;;
21624;SDS011;10974;51.034;3.744;2022-11-20T20:43:55;14.17;;;5.00;;
21624;SDS011;10974;51.034;3.744;2022-11-20T20:46:39;12.23;;;5.33;;
21624;SDS011;10974;51.034;3.744;2022-11-20T20:49:05;11.23;;;5.10;;